sensor_id;sensor_type;location;lat;lon;timestamp;P1;durP1;ratioP1;P2;durP2;ratioP2
33495;SDS011;19836;55.812;37.560;2024-03-02T00:00:05;32.83;;;20.35;;
33495;SDS011;19836;55.812;37.560;2024-03-02T00:02:41;33.00;;;19.35;;
33495;SDS011;19836;55.812;37.560;2024-03-02T00:05:14;30.77;;;22.92;;
33495;SDS011;19836;55.812;37.560;2024-03-02T00:07:41;36.22;;;22.63;;
33495;SDS011;19836;55.812;37.560;2024-03-02T00:10:09;32.10;;;22.08;;
33495;SDS011;19836;55.812;37.560;2024-03-02T00:18:32;32.75;;;22.45;;
33495;SDS011;19836;55.812;37.560;2024-03-02T00:21:24;32.95;;;22.30;;
33495;SDS011;19836;55.812;37.560;2024-03-02T00:24:02;34.00;;;21.52;;
33495;SDS011;19836;55.812;37.560;2024-03-02T00:32:31;30.90;;;20.85;;
33495;SDS011;19836;55.812;37.560;2024-03-02T00:34:58;29.60;;;20.55;;
33495;SDS011;19836;55.812;37.560;2024-03-02T00:37:56;30.83;;;21.13;;
33495;SDS011;19836;55.812;37.560;2024-03-02T00:40:41;33.35;;;22.10;;
33495;SDS011;19836;55.812;37.560;2024-03-02T01:08:00;31.90;;;21.25;;
33495;SDS011;19836;55.812;37.560;2024-03-02T01:10:33;33.58;;;20.67;;
33495;SDS011;19836;55.812;37.560;2024-03-02T01:13:04;33.47;;;21.33;;
33495;SDS011;19836;55.812;37.560;2024-03-02T01:15:36;32.63;;;21.33;;
33495;SDS011;19836;55.812;37.560;2024-03-02T01:18:07;35.67;;;22.20;;
33495;SDS011;19836;55.812;37.560;2024-03-02T02:38:02;35.53;;;21.37;;
33495;SDS011;19836;55.812;37.560;2024-03-02T02:58:12;33.95;;;21.73;;
33495;SDS011;19836;55.812;37.560;2024-03-02T03:00:38;31.05;;;21.98;;
33495;SDS011;19836;55.812;37.560;2024-03-02T03:03:05;33.85;;;22.05;;
33495;SDS011;19836;55.812;37.560;2024-03-02T03:05:32;33.55;;;21.45;;
33495;SDS011;19836;55.812;37.560;2024-03-02T03:08:02;36.20;;;22.80;;
33495;SDS011;19836;55.812;37.560;2024-03-02T03:10:30;31.48;;;21.70;;
33495;SDS011;19836;55.812;37.560;2024-03-02T03:12:59;30.63;;;21.35;;
33495;SDS011;19836;55.812;37.560;2024-03-02T03:22:17;30.67;;;21.63;;
33495;SDS011;19836;55.812;37.560;2024-03-02T03:24:44;35.17;;;22.00;;
33495;SDS011;19836;55.812;37.560;2024-03-02T03:27:13;35.13;;;24.10;;
33495;SDS011;19836;55.812;37.560;2024-03-02T03:29:39;39.38;;;24.48;;
33495;SDS011;19836;55.812;37.560;2024-03-02T03:32:06;36.63;;;23.80;;
33495;SDS011;19836;55.812;37.560;2024-03-02T03:34:33;37.03;;;23.52;;
33495;SDS011;19836;55.812;37.560;2024-03-02T03:37:00;35.63;;;23.48;;
33495;SDS011;19836;55.812;37.560;2024-03-02T03:39:27;38.17;;;23.65;;
33495;SDS011;19836;55.812;37.560;2024-03-02T03:41:54;33.25;;;23.25;;
33495;SDS011;19836;55.812;37.560;2024-03-02T03:44:23;32.85;;;23.55;;
33495;SDS011;19836;55.812;37.560;2024-03-02T04:27:10;31.90;;;22.20;;
33495;SDS011;19836;55.812;37.560;2024-03-02T04:29:37;31.52;;;22.95;;
33495;SDS011;19836;55.812;37.560;2024-03-02T05:16:04;43.92;;;30.27;;
33495;SDS011;19836;55.812;37.560;2024-03-02T05:24:16;41.03;;;29.65;;
33495;SDS011;19836;55.812;37.560;2024-03-02T05:26:45;46.22;;;30.60;;
33495;SDS011;19836;55.812;37.560;2024-03-02T05:29:16;43.75;;;28.33;;
33495;SDS011;19836;55.812;37.560;2024-03-02T05:52:20;38.75;;;27.02;;
33495;SDS011;19836;55.812;37.560;2024-03-02T05:54:47;40.22;;;26.35;;
33495;SDS011;19836;55.812;37.560;2024-03-02T05:57:16;40.80;;;29.63;;
33495;SDS011;19836;55.812;37.560;2024-03-02T05:59:48;45.65;;;29.52;;
33495;SDS011;19836;55.812;37.560;2024-03-02T06:02:17;38.80;;;27.13;;
33495;SDS011;19836;55.812;37.560;2024-03-02T06:04:44;39.28;;;25.77;;
33495;SDS011;19836;55.812;37.560;2024-03-02T06:07:13;38.15;;;26.27;;
33495;SDS011;19836;55.812;37.560;2024-03-02T06:09:43;40.30;;;26.90;;
33495;SDS011;19836;55.812;37.560;2024-03-02T06:12:14;37.58;;;26.63;;
33495;SDS011;19836;55.812;37.560;2024-03-02T06:17:56;37.60;;;25.80;;
33495;SDS011;19836;55.812;37.560;2024-03-02T06:29:36;44.13;;;28.33;;
33495;SDS011;19836;55.812;37.560;2024-03-02T06:32:06;42.45;;;27.38;;
33495;SDS011;19836;55.812;37.560;2024-03-02T06:34:34;44.60;;;27.90;;
33495;SDS011;19836;55.812;37.560;2024-03-02T06:37:04;44.53;;;28.23;;
33495;SDS011;19836;55.812;37.560;2024-03-02T06:39:30;44.28;;;29.48;;
33495;SDS011;19836;55.812;37.560;2024-03-02T06:42:00;38.67;;;27.58;;
33495;SDS011;19836;55.812;37.560;2024-03-02T06:44:28;42.85;;;28.88;;
33495;SDS011;19836;55.812;37.560;2024-03-02T06:46:58;40.05;;;26.38;;
33495;SDS011;19836;55.812;37.560;2024-03-02T06:49:27;42.97;;;28.42;;
33495;SDS011;19836;55.812;37.560;2024-03-02T06:51:53;42.15;;;29.60;;
33495;SDS011;19836;55.812;37.560;2024-03-02T06:54:21;46.47;;;29.90;;
33495;SDS011;19836;55.812;37.560;2024-03-02T06:56:47;43.50;;;28.65;;
33495;SDS011;19836;55.812;37.560;2024-03-02T06:59:13;42.38;;;28.83;;
33495;SDS011;19836;55.812;37.560;2024-03-02T07:01:39;41.72;;;30.60;;
33495;SDS011;19836;55.812;37.560;2024-03-02T07:04:05;45.92;;;30.92;;
33495;SDS011;19836;55.812;37.560;2024-03-02T07:06:32;42.40;;;31.05;;
33495;SDS011;19836;55.812;37.560;2024-03-02T07:08:58;46.22;;;31.17;;
33495;SDS011;19836;55.812;37.560;2024-03-02T07:11:24;43.75;;;29.63;;
33495;SDS011;19836;55.812;37.560;2024-03-02T07:13:49;44.35;;;29.50;;
33495;SDS011;19836;55.812;37.560;2024-03-02T07:16:15;45.45;;;32.30;;
33495;SDS011;19836;55.812;37.560;2024-03-02T07:18:55;42.15;;;30.15;;
33495;SDS011;19836;55.812;37.560;2024-03-02T07:24:00;39.92;;;27.98;;
33495;SDS011;19836;55.812;37.560;2024-03-02T07:26:28;39.67;;;29.10;;
33495;SDS011;19836;55.812;37.560;2024-03-02T07:28:56;37.97;;;27.90;;
33495;SDS011;19836;55.812;37.560;2024-03-02T07:31:23;39.25;;;28.60;;
33495;SDS011;19836;55.812;37.560;2024-03-02T07:33:49;46.30;;;28.85;;
33495;SDS011;19836;55.812;37.560;2024-03-02T07:36:15;41.67;;;28.23;;
33495;SDS011;19836;55.812;37.560;2024-03-02T07:38:41;43.72;;;28.48;;
33495;SDS011;19836;55.812;37.560;2024-03-02T07:41:08;39.03;;;28.15;;
33495;SDS011;19836;55.812;37.560;2024-03-02T07:43:34;39.33;;;26.38;;
33495;SDS011;19836;55.812;37.560;2024-03-02T07:46:00;42.15;;;27.58;;
33495;SDS011;19836;55.812;37.560;2024-03-02T07:48:26;35.75;;;26.48;;
33495;SDS011;19836;55.812;37.560;2024-03-02T07:50:52;39.33;;;26.83;;
33495;SDS011;19836;55.812;37.560;2024-03-02T07:53:18;39.03;;;26.52;;
33495;SDS011;19836;55.812;37.560;2024-03-02T07:55:44;39.15;;;25.80;;
33495;SDS011;19836;55.812;37.560;2024-03-02T07:58:10;40.95;;;27.67;;
33495;SDS011;19836;55.812;37.560;2024-03-02T08:00:38;35.08;;;25.02;;
33495;SDS011;19836;55.812;37.560;2024-03-02T08:03:05;41.97;;;29.42;;
33495;SDS011;19836;55.812;37.560;2024-03-02T08:05:32;41.92;;;28.42;;
33495;SDS011;19836;55.812;37.560;2024-03-02T08:07:58;40.38;;;27.35;;
33495;SDS011;19836;55.812;37.560;2024-03-02T08:10:24;38.95;;;27.45;;
33495;SDS011;19836;55.812;37.560;2024-03-02T08:12:50;37.95;;;25.80;;
33495;SDS011;19836;55.812;37.560;2024-03-02T08:15:16;41.42;;;29.95;;
33495;SDS011;19836;55.812;37.560;2024-03-02T08:17:42;39.20;;;26.40;;
33495;SDS011;19836;55.812;37.560;2024-03-02T08:20:13;41.90;;;26.95;;
33495;SDS011;19836;55.812;37.560;2024-03-02T08:22:39;38.35;;;27.02;;
33495;SDS011;19836;55.812;37.560;2024-03-02T08:25:08;38.38;;;26.65;;
33495;SDS011;19836;55.812;37.560;2024-03-02T08:27:35;39.88;;;27.83;;
33495;SDS011;19836;55.812;37.560;2024-03-02T08:30:01;40.80;;;27.90;;
33495;SDS011;19836;55.812;37.560;2024-03-02T08:32:33;35.03;;;26.27;;
33495;SDS011;19836;55.812;37.560;2024-03-02T08:34:59;39.53;;;26.10;;
33495;SDS011;19836;55.812;37.560;2024-03-02T08:37:25;35.83;;;25.40;;
33495;SDS011;19836;55.812;37.560;2024-03-02T08:39:52;41.05;;;27.45;;
33495;SDS011;19836;55.812;37.560;2024-03-02T08:42:18;42.90;;;27.63;;
33495;SDS011;19836;55.812;37.560;2024-03-02T08:44:44;39.97;;;28.20;;
33495;SDS011;19836;55.812;37.560;2024-03-02T08:47:10;38.67;;;26.80;;
33495;SDS011;19836;55.812;37.560;2024-03-02T08:49:35;40.15;;;27.65;;
33495;SDS011;19836;55.812;37.560;2024-03-02T08:52:01;37.03;;;26.90;;
33495;SDS011;19836;55.812;37.560;2024-03-02T08:54:27;39.53;;;26.38;;
33495;SDS011;19836;55.812;37.560;2024-03-02T08:56:53;36.17;;;26.63;;
33495;SDS011;19836;55.812;37.560;2024-03-02T08:59:19;37.15;;;27.35;;
33495;SDS011;19836;55.812;37.560;2024-03-02T09:01:45;40.00;;;27.83;;
33495;SDS011;19836;55.812;37.560;2024-03-02T09:04:11;37.00;;;27.33;;
33495;SDS011;19836;55.812;37.560;2024-03-02T09:06:37;35.35;;;26.08;;
33495;SDS011;19836;55.812;37.560;2024-03-02T09:12:28;37.97;;;26.88;;
33495;SDS011;19836;55.812;37.560;2024-03-02T09:15:15;39.30;;;26.75;;
33495;SDS011;19836;55.812;37.560;2024-03-02T09:17:54;34.95;;;25.77;;
33495;SDS011;19836;55.812;37.560;2024-03-02T09:20:20;36.03;;;27.40;;
33495;SDS011;19836;55.812;37.560;2024-03-02T09:22:46;36.65;;;27.33;;
33495;SDS011;19836;55.812;37.560;2024-03-02T09:25:14;34.70;;;25.65;;
33495;SDS011;19836;55.812;37.560;2024-03-02T09:27:41;37.85;;;26.58;;
33495;SDS011;19836;55.812;37.560;2024-03-02T09:30:10;33.17;;;26.13;;
33495;SDS011;19836;55.812;37.560;2024-03-02T09:32:37;33.50;;;26.33;;
33495;SDS011;19836;55.812;37.560;2024-03-02T09:35:03;33.97;;;26.20;;
33495;SDS011;19836;55.812;37.560;2024-03-02T09:37:30;35.45;;;25.63;;
33495;SDS011;19836;55.812;37.560;2024-03-02T09:39:57;34.10;;;25.73;;
33495;SDS011;19836;55.812;37.560;2024-03-02T09:42:28;37.22;;;25.58;;
33495;SDS011;19836;55.812;37.560;2024-03-02T09:44:55;33.55;;;24.95;;
33495;SDS011;19836;55.812;37.560;2024-03-02T09:47:25;34.28;;;24.67;;
33495;SDS011;19836;55.812;37.560;2024-03-02T09:49:52;33.63;;;24.85;;
33495;SDS011;19836;55.812;37.560;2024-03-02T09:52:22;35.88;;;24.23;;
33495;SDS011;19836;55.812;37.560;2024-03-02T09:55:02;34.92;;;24.75;;
33495;SDS011;19836;55.812;37.560;2024-03-02T09:57:29;34.13;;;24.10;;
33495;SDS011;19836;55.812;37.560;2024-03-02T09:59:55;32.00;;;24.05;;
33495;SDS011;19836;55.812;37.560;2024-03-02T10:02:23;33.58;;;24.55;;
33495;SDS011;19836;55.812;37.560;2024-03-02T10:07:21;32.33;;;23.33;;
33495;SDS011;19836;55.812;37.560;2024-03-02T10:09:48;34.42;;;23.55;;
33495;SDS011;19836;55.812;37.560;2024-03-02T10:12:16;31.27;;;22.98;;
33495;SDS011;19836;55.812;37.560;2024-03-02T10:14:43;33.53;;;22.95;;
33495;SDS011;19836;55.812;37.560;2024-03-02T10:17:11;31.13;;;22.42;;
33495;SDS011;19836;55.812;37.560;2024-03-02T10:19:39;28.98;;;22.50;;
33495;SDS011;19836;55.812;37.560;2024-03-02T10:25:30;31.90;;;22.02;;
33495;SDS011;19836;55.812;37.560;2024-03-02T10:29:33;33.85;;;22.52;;
33495;SDS011;19836;55.812;37.560;2024-03-02T10:32:12;29.98;;;22.55;;
33495;SDS011;19836;55.812;37.560;2024-03-02T10:35:02;29.80;;;22.65;;
33495;SDS011;19836;55.812;37.560;2024-03-02T10:37:29;33.10;;;24.17;;
33495;SDS011;19836;55.812;37.560;2024-03-02T10:40:05;33.25;;;22.70;;
33495;SDS011;19836;55.812;37.560;2024-03-02T10:42:34;29.70;;;22.85;;
33495;SDS011;19836;55.812;37.560;2024-03-02T10:45:02;32.60;;;24.50;;
33495;SDS011;19836;55.812;37.560;2024-03-02T10:48:01;31.55;;;23.17;;
33495;SDS011;19836;55.812;37.560;2024-03-02T10:54:31;31.58;;;21.42;;
33495;SDS011;19836;55.812;37.560;2024-03-02T10:57:02;31.33;;;21.48;;
33495;SDS011;19836;55.812;37.560;2024-03-02T10:59:34;29.95;;;22.80;;
33495;SDS011;19836;55.812;37.560;2024-03-02T11:02:06;28.08;;;21.08;;
33495;SDS011;19836;55.812;37.560;2024-03-02T11:04:54;31.95;;;21.33;;
33495;SDS011;19836;55.812;37.560;2024-03-02T11:07:24;30.92;;;20.90;;
33495;SDS011;19836;55.812;37.560;2024-03-02T11:10:17;28.65;;;20.42;;
33495;SDS011;19836;55.812;37.560;2024-03-02T11:18:12;27.95;;;20.75;;
33495;SDS011;19836;55.812;37.560;2024-03-02T11:20:40;29.17;;;21.17;;
33495;SDS011;19836;55.812;37.560;2024-03-02T11:23:08;34.33;;;22.77;;
33495;SDS011;19836;55.812;37.560;2024-03-02T11:25:35;27.23;;;20.45;;
33495;SDS011;19836;55.812;37.560;2024-03-02T11:28:02;29.85;;;22.30;;
33495;SDS011;19836;55.812;37.560;2024-03-02T11:33:04;29.75;;;21.63;;
33495;SDS011;19836;55.812;37.560;2024-03-02T11:38:03;28.63;;;21.10;;
33495;SDS011;19836;55.812;37.560;2024-03-02T11:40:31;32.42;;;22.98;;
33495;SDS011;19836;55.812;37.560;2024-03-02T11:42:59;31.20;;;22.35;;
33495;SDS011;19836;55.812;37.560;2024-03-02T11:45:26;32.97;;;21.50;;
33495;SDS011;19836;55.812;37.560;2024-03-02T11:47:56;31.40;;;21.77;;
33495;SDS011;19836;55.812;37.560;2024-03-02T11:50:36;35.35;;;23.08;;
33495;SDS011;19836;55.812;37.560;2024-03-02T11:53:07;35.20;;;22.42;;
33495;SDS011;19836;55.812;37.560;2024-03-02T11:55:35;31.92;;;21.50;;
33495;SDS011;19836;55.812;37.560;2024-03-02T11:58:05;31.85;;;22.38;;
33495;SDS011;19836;55.812;37.560;2024-03-02T12:00:41;31.17;;;21.88;;
33495;SDS011;19836;55.812;37.560;2024-03-02T12:03:08;33.85;;;22.60;;
33495;SDS011;19836;55.812;37.560;2024-03-02T12:05:36;39.40;;;23.92;;
33495;SDS011;19836;55.812;37.560;2024-03-02T12:08:03;46.15;;;29.42;;
33495;SDS011;19836;55.812;37.560;2024-03-02T12:10:32;37.45;;;24.65;;
33495;SDS011;19836;55.812;37.560;2024-03-02T12:12:59;31.55;;;22.40;;
33495;SDS011;19836;55.812;37.560;2024-03-02T12:15:38;30.45;;;22.73;;
33495;SDS011;19836;55.812;37.560;2024-03-02T12:18:05;31.92;;;22.00;;
33495;SDS011;19836;55.812;37.560;2024-03-02T12:20:32;31.98;;;21.67;;
33495;SDS011;19836;55.812;37.560;2024-03-02T12:23:00;34.15;;;21.65;;
33495;SDS011;19836;55.812;37.560;2024-03-02T12:25:28;28.77;;;20.55;;
33495;SDS011;19836;55.812;37.560;2024-03-02T12:27:56;34.58;;;22.02;;
33495;SDS011;19836;55.812;37.560;2024-03-02T12:30:30;33.97;;;21.58;;
33495;SDS011;19836;55.812;37.560;2024-03-02T12:33:07;30.48;;;21.60;;
33495;SDS011;19836;55.812;37.560;2024-03-02T12:39:32;33.25;;;21.98;;
33495;SDS011;19836;55.812;37.560;2024-03-02T12:41:58;33.30;;;22.02;;
33495;SDS011;19836;55.812;37.560;2024-03-02T12:44:24;30.75;;;21.30;;
33495;SDS011;19836;55.812;37.560;2024-03-02T12:46:51;28.85;;;21.20;;
33495;SDS011;19836;55.812;37.560;2024-03-02T12:49:23;28.92;;;21.48;;
33495;SDS011;19836;55.812;37.560;2024-03-02T12:51:57;29.85;;;21.13;;
33495;SDS011;19836;55.812;37.560;2024-03-02T12:54:43;27.23;;;20.67;;
33495;SDS011;19836;55.812;37.560;2024-03-02T12:57:10;32.70;;;22.83;;
33495;SDS011;19836;55.812;37.560;2024-03-02T12:59:59;28.13;;;21.23;;
33495;SDS011;19836;55.812;37.560;2024-03-02T13:02:28;30.58;;;21.70;;
33495;SDS011;19836;55.812;37.560;2024-03-02T13:04:59;30.95;;;21.63;;
33495;SDS011;19836;55.812;37.560;2024-03-02T13:07:26;28.63;;;20.40;;
33495;SDS011;19836;55.812;37.560;2024-03-02T13:13:51;29.85;;;20.58;;
33495;SDS011;19836;55.812;37.560;2024-03-02T13:17:03;32.17;;;22.05;;
33495;SDS011;19836;55.812;37.560;2024-03-02T13:27:08;28.50;;;21.10;;
33495;SDS011;19836;55.812;37.560;2024-03-02T13:29:35;25.67;;;19.25;;
33495;SDS011;19836;55.812;37.560;2024-03-02T13:32:08;27.17;;;19.63;;
33495;SDS011;19836;55.812;37.560;2024-03-02T13:34:35;26.85;;;18.73;;
33495;SDS011;19836;55.812;37.560;2024-03-02T13:37:03;24.70;;;18.55;;
33495;SDS011;19836;55.812;37.560;2024-03-02T13:39:36;25.08;;;18.02;;
33495;SDS011;19836;55.812;37.560;2024-03-02T13:42:11;26.13;;;18.33;;
33495;SDS011;19836;55.812;37.560;2024-03-02T13:44:46;25.50;;;19.15;;
33495;SDS011;19836;55.812;37.560;2024-03-02T13:47:16;27.98;;;19.08;;
33495;SDS011;19836;55.812;37.560;2024-03-02T13:49:45;26.95;;;17.67;;
33495;SDS011;19836;55.812;37.560;2024-03-02T13:52:12;29.13;;;18.63;;
33495;SDS011;19836;55.812;37.560;2024-03-02T13:54:42;26.25;;;19.10;;
33495;SDS011;19836;55.812;37.560;2024-03-02T13:57:10;26.13;;;19.33;;
33495;SDS011;19836;55.812;37.560;2024-03-02T14:02:59;31.88;;;22.52;;
33495;SDS011;19836;55.812;37.560;2024-03-02T14:05:29;26.45;;;18.30;;
33495;SDS011;19836;55.812;37.560;2024-03-02T14:07:56;28.35;;;18.13;;
33495;SDS011;19836;55.812;37.560;2024-03-02T14:10:45;26.13;;;18.45;;
33495;SDS011;19836;55.812;37.560;2024-03-02T14:13:29;30.52;;;19.95;;
33495;SDS011;19836;55.812;37.560;2024-03-02T14:16:04;24.95;;;18.42;;
33495;SDS011;19836;55.812;37.560;2024-03-02T14:18:56;26.20;;;18.50;;
33495;SDS011;19836;55.812;37.560;2024-03-02T14:24:45;23.88;;;17.33;;
33495;SDS011;19836;55.812;37.560;2024-03-02T14:27:18;26.00;;;17.58;;
33495;SDS011;19836;55.812;37.560;2024-03-02T14:29:44;25.42;;;18.42;;
33495;SDS011;19836;55.812;37.560;2024-03-02T14:32:12;24.02;;;18.05;;
33495;SDS011;19836;55.812;37.560;2024-03-02T14:34:49;24.63;;;18.02;;
33495;SDS011;19836;55.812;37.560;2024-03-02T14:37:15;27.85;;;17.30;;
33495;SDS011;19836;55.812;37.560;2024-03-02T14:39:41;26.08;;;17.90;;
33495;SDS011;19836;55.812;37.560;2024-03-02T14:42:08;23.50;;;17.50;;
33495;SDS011;19836;55.812;37.560;2024-03-02T14:44:34;25.52;;;18.23;;
33495;SDS011;19836;55.812;37.560;2024-03-02T14:47:03;24.95;;;17.10;;
33495;SDS011;19836;55.812;37.560;2024-03-02T14:49:31;25.90;;;18.33;;
33495;SDS011;19836;55.812;37.560;2024-03-02T14:51:59;28.23;;;18.75;;
33495;SDS011;19836;55.812;37.560;2024-03-02T14:54:27;27.92;;;18.92;;
33495;SDS011;19836;55.812;37.560;2024-03-02T14:57:00;25.70;;;18.08;;
33495;SDS011;19836;55.812;37.560;2024-03-02T14:59:41;25.67;;;18.08;;
33495;SDS011;19836;55.812;37.560;2024-03-02T15:02:32;26.25;;;17.55;;
33495;SDS011;19836;55.812;37.560;2024-03-02T15:04:59;24.52;;;17.85;;
33495;SDS011;19836;55.812;37.560;2024-03-02T15:07:26;27.98;;;19.77;;
33495;SDS011;19836;55.812;37.560;2024-03-02T15:09:57;27.63;;;18.70;;
33495;SDS011;19836;55.812;37.560;2024-03-02T15:12:40;27.63;;;18.40;;
33495;SDS011;19836;55.812;37.560;2024-03-02T15:19:35;28.08;;;18.52;;
33495;SDS011;19836;55.812;37.560;2024-03-02T15:23:18;23.20;;;17.05;;
33495;SDS011;19836;55.812;37.560;2024-03-02T15:25:55;27.20;;;18.30;;
33495;SDS011;19836;55.812;37.560;2024-03-02T15:28:22;24.35;;;17.83;;
33495;SDS011;19836;55.812;37.560;2024-03-02T15:30:49;23.23;;;17.80;;
33495;SDS011;19836;55.812;37.560;2024-03-02T15:33:18;27.65;;;18.02;;
33495;SDS011;19836;55.812;37.560;2024-03-02T15:35:44;29.33;;;18.98;;
33495;SDS011;19836;55.812;37.560;2024-03-02T15:38:10;27.45;;;19.23;;
33495;SDS011;19836;55.812;37.560;2024-03-02T15:40:40;25.77;;;18.85;;
33495;SDS011;19836;55.812;37.560;2024-03-02T15:43:07;31.17;;;19.27;;
33495;SDS011;19836;55.812;37.560;2024-03-02T15:45:33;32.28;;;18.73;;
33495;SDS011;19836;55.812;37.560;2024-03-02T15:48:00;26.83;;;18.73;;
33495;SDS011;19836;55.812;37.560;2024-03-02T15:50:27;26.95;;;19.80;;
33495;SDS011;19836;55.812;37.560;2024-03-02T15:52:53;26.00;;;19.33;;
33495;SDS011;19836;55.812;37.560;2024-03-02T15:55:21;24.23;;;17.65;;
33495;SDS011;19836;55.812;37.560;2024-03-02T15:57:47;24.95;;;18.52;;
33495;SDS011;19836;55.812;37.560;2024-03-02T16:00:13;27.65;;;18.60;;
33495;SDS011;19836;55.812;37.560;2024-03-02T16:02:40;26.08;;;19.23;;
33495;SDS011;19836;55.812;37.560;2024-03-02T16:05:09;27.92;;;18.38;;
33495;SDS011;19836;55.812;37.560;2024-03-02T16:07:35;25.13;;;17.23;;
33495;SDS011;19836;55.812;37.560;2024-03-02T16:10:02;22.95;;;17.88;;
33495;SDS011;19836;55.812;37.560;2024-03-02T16:12:32;27.10;;;20.33;;
33495;SDS011;19836;55.812;37.560;2024-03-02T16:14:58;28.95;;;18.40;;
33495;SDS011;19836;55.812;37.560;2024-03-02T16:17:25;29.95;;;19.75;;
33495;SDS011;19836;55.812;37.560;2024-03-02T16:19:53;24.45;;;19.90;;
33495;SDS011;19836;55.812;37.560;2024-03-02T16:22:27;26.63;;;19.50;;
33495;SDS011;19836;55.812;37.560;2024-03-02T16:33:14;27.30;;;20.35;;
33495;SDS011;19836;55.812;37.560;2024-03-02T16:35:42;25.38;;;19.40;;
33495;SDS011;19836;55.812;37.560;2024-03-02T16:41:13;29.67;;;19.15;;
33495;SDS011;19836;55.812;37.560;2024-03-02T16:43:47;29.05;;;20.02;;
33495;SDS011;19836;55.812;37.560;2024-03-02T16:46:21;26.85;;;18.58;;
33495;SDS011;19836;55.812;37.560;2024-03-02T16:56:09;25.48;;;19.05;;
33495;SDS011;19836;55.812;37.560;2024-03-02T16:58:35;24.63;;;18.50;;
33495;SDS011;19836;55.812;37.560;2024-03-02T17:01:04;26.25;;;19.30;;
33495;SDS011;19836;55.812;37.560;2024-03-02T17:03:30;25.55;;;19.63;;
33495;SDS011;19836;55.812;37.560;2024-03-02T17:06:02;27.90;;;20.00;;
33495;SDS011;19836;55.812;37.560;2024-03-02T17:08:29;27.38;;;19.30;;
33495;SDS011;19836;55.812;37.560;2024-03-02T17:23:50;25.17;;;17.30;;
33495;SDS011;19836;55.812;37.560;2024-03-02T17:26:16;26.42;;;19.02;;
33495;SDS011;19836;55.812;37.560;2024-03-02T17:28:45;22.90;;;17.17;;
33495;SDS011;19836;55.812;37.560;2024-03-02T17:31:15;21.35;;;15.75;;
33495;SDS011;19836;55.812;37.560;2024-03-02T17:33:48;20.30;;;15.77;;
33495;SDS011;19836;55.812;37.560;2024-03-02T17:36:18;18.25;;;14.60;;
33495;SDS011;19836;55.812;37.560;2024-03-02T17:38:48;17.23;;;13.23;;
33495;SDS011;19836;55.812;37.560;2024-03-02T17:41:19;18.75;;;13.55;;
33495;SDS011;19836;55.812;37.560;2024-03-02T17:46:23;17.52;;;14.40;;
33495;SDS011;19836;55.812;37.560;2024-03-02T17:48:52;17.50;;;13.73;;
33495;SDS011;19836;55.812;37.560;2024-03-02T17:54:35;17.08;;;13.30;;
33495;SDS011;19836;55.812;37.560;2024-03-02T17:57:02;20.48;;;14.45;;
33495;SDS011;19836;55.812;37.560;2024-03-02T17:59:28;18.90;;;13.73;;
33495;SDS011;19836;55.812;37.560;2024-03-02T18:01:55;20.13;;;14.48;;
33495;SDS011;19836;55.812;37.560;2024-03-02T18:04:21;19.25;;;13.70;;
33495;SDS011;19836;55.812;37.560;2024-03-02T18:06:47;17.63;;;13.13;;
33495;SDS011;19836;55.812;37.560;2024-03-02T18:09:23;22.98;;;14.65;;
33495;SDS011;19836;55.812;37.560;2024-03-02T18:11:50;17.95;;;13.68;;
33495;SDS011;19836;55.812;37.560;2024-03-02T18:14:16;18.77;;;14.02;;
33495;SDS011;19836;55.812;37.560;2024-03-02T18:16:43;19.40;;;14.75;;
33495;SDS011;19836;55.812;37.560;2024-03-02T18:19:10;19.42;;;13.63;;
33495;SDS011;19836;55.812;37.560;2024-03-02T18:21:36;19.35;;;14.43;;
33495;SDS011;19836;55.812;37.560;2024-03-02T18:24:01;19.13;;;13.15;;
33495;SDS011;19836;55.812;37.560;2024-03-02T18:26:27;17.20;;;12.00;;
33495;SDS011;19836;55.812;37.560;2024-03-02T18:28:54;15.85;;;12.25;;
33495;SDS011;19836;55.812;37.560;2024-03-02T18:31:22;17.10;;;12.27;;
33495;SDS011;19836;55.812;37.560;2024-03-02T18:33:54;14.50;;;11.07;;
33495;SDS011;19836;55.812;37.560;2024-03-02T18:36:32;16.15;;;10.90;;
33495;SDS011;19836;55.812;37.560;2024-03-02T18:38:59;16.73;;;11.68;;
33495;SDS011;19836;55.812;37.560;2024-03-02T18:41:25;16.25;;;12.10;;
33495;SDS011;19836;55.812;37.560;2024-03-02T18:43:50;16.35;;;12.00;;
33495;SDS011;19836;55.812;37.560;2024-03-02T18:46:17;16.95;;;12.38;;
33495;SDS011;19836;55.812;37.560;2024-03-02T18:48:44;16.77;;;12.85;;
33495;SDS011;19836;55.812;37.560;2024-03-02T18:51:09;14.65;;;12.15;;
33495;SDS011;19836;55.812;37.560;2024-03-02T18:53:36;19.13;;;11.82;;
33495;SDS011;19836;55.812;37.560;2024-03-02T18:56:02;16.70;;;11.82;;
33495;SDS011;19836;55.812;37.560;2024-03-02T18:58:31;15.82;;;12.10;;
33495;SDS011;19836;55.812;37.560;2024-03-02T19:00:57;16.02;;;12.20;;
33495;SDS011;19836;55.812;37.560;2024-03-02T19:03:24;18.10;;;11.85;;
33495;SDS011;19836;55.812;37.560;2024-03-02T19:05:50;19.52;;;11.82;;
33495;SDS011;19836;55.812;37.560;2024-03-02T19:08:15;20.27;;;12.95;;
33495;SDS011;19836;55.812;37.560;2024-03-02T19:10:45;16.63;;;11.80;;
33495;SDS011;19836;55.812;37.560;2024-03-02T19:13:13;15.98;;;12.07;;
33495;SDS011;19836;55.812;37.560;2024-03-02T19:15:42;14.68;;;11.30;;
33495;SDS011;19836;55.812;37.560;2024-03-02T19:18:08;17.80;;;11.75;;
33495;SDS011;19836;55.812;37.560;2024-03-02T19:20:35;19.55;;;11.63;;
33495;SDS011;19836;55.812;37.560;2024-03-02T19:23:00;17.02;;;11.23;;
33495;SDS011;19836;55.812;37.560;2024-03-02T19:25:26;13.52;;;11.02;;
33495;SDS011;19836;55.812;37.560;2024-03-02T19:27:53;16.35;;;10.77;;
33495;SDS011;19836;55.812;37.560;2024-03-02T19:30:19;14.48;;;12.18;;
33495;SDS011;19836;55.812;37.560;2024-03-02T19:32:44;17.50;;;11.07;;
33495;SDS011;19836;55.812;37.560;2024-03-02T19:35:10;16.90;;;9.95;;
33495;SDS011;19836;55.812;37.560;2024-03-02T19:37:40;17.70;;;11.63;;
33495;SDS011;19836;55.812;37.560;2024-03-02T19:40:07;18.10;;;10.63;;
33495;SDS011;19836;55.812;37.560;2024-03-02T19:42:35;15.57;;;10.82;;
33495;SDS011;19836;55.812;37.560;2024-03-02T19:45:02;13.88;;;10.65;;
33495;SDS011;19836;55.812;37.560;2024-03-02T19:47:31;16.08;;;11.85;;
33495;SDS011;19836;55.812;37.560;2024-03-02T19:49:58;13.55;;;10.93;;
33495;SDS011;19836;55.812;37.560;2024-03-02T19:52:25;18.10;;;11.63;;
33495;SDS011;19836;55.812;37.560;2024-03-02T19:54:51;14.68;;;11.38;;
33495;SDS011;19836;55.812;37.560;2024-03-02T19:57:20;23.52;;;17.20;;
33495;SDS011;19836;55.812;37.560;2024-03-02T19:59:48;16.35;;;11.70;;
33495;SDS011;19836;55.812;37.560;2024-03-02T20:02:15;17.88;;;13.20;;
33495;SDS011;19836;55.812;37.560;2024-03-02T20:04:41;18.42;;;13.70;;
33495;SDS011;19836;55.812;37.560;2024-03-02T20:07:09;17.90;;;12.70;;
33495;SDS011;19836;55.812;37.560;2024-03-02T20:09:35;15.45;;;12.73;;
33495;SDS011;19836;55.812;37.560;2024-03-02T20:12:02;16.92;;;12.50;;
33495;SDS011;19836;55.812;37.560;2024-03-02T20:14:30;16.42;;;13.55;;